To NAV CANADA Home Page Login to a new session Search on AWWS site Feedback and Comments Disclaimer Vers la page française équivalente Tips FAQ What's new on the site To the Forecasts and Observations / NOTAM section To "File a Flight Plan" website Publications and other links Update of the User's profile FIC Telephone Numbers My Weather Data Folder Route Weather Data Regional Weather Data Local Weather Data To the Forecasts and Observations / NOTAM section
Request Generated 07/26/2017 at 04:28:21 UTC . Weather information available at that time is displayed.

METAR/TAF

CALGARY INTL/AB    

METAR CYYC 260400Z 11010KT 40SM FEW150 FEW250 18/08 A3012 RMK AC1CI1
AC TR SLP197 DENSITY ALT 4700FT=
METAR CYYC 260300Z 10006KT 40SM FEW130 FEW250 20/07 A3010 RMK AC1CI1
AC TR SLP192 DENSITY ALT 4800FT=
METAR CYYC 260200Z 09008KT 30SM FEW085 FEW150 SCT250 22/07 A3009 RMK
AC1AC2CI1 AC TR SLP191 DENSITY ALT 5100FT=

TAF CYYC 260238Z 2603/2624 12008KT P6SM FEW080
BECMG 2605/2607 16006KT
BECMG 2613/2615 16010KT
FM261800 16012KT P6SM FEW120
RMK NXT FCST BY 260600Z=
Your time UTC time
Weather data provided by Environment Canada and NAV CANADA